createdAt,value
2022-10-05T00:01:35.466Z,12.11
2022-10-05T00:04:39.533Z,12.14
2022-10-05T00:07:43.602Z,12.09
2022-10-05T00:10:48.089Z,12.16
2022-10-05T00:13:52.808Z,12.18
2022-10-05T00:16:57.875Z,12.18
2022-10-05T00:20:02.564Z,12.14
2022-10-05T00:23:14.036Z,12.12
2022-10-05T00:26:24.098Z,12.07
2022-10-05T00:29:28.398Z,12.07
2022-10-05T00:32:32.542Z,12.04
2022-10-05T00:35:36.736Z,12.01
2022-10-05T00:38:42.202Z,12.03
2022-10-05T00:42:29.142Z,11.98
2022-10-05T00:45:45.585Z,11.95
2022-10-05T00:48:56.234Z,11.89
2022-10-05T00:52:26.303Z,11.88
2022-10-05T00:55:59.182Z,11.86
2022-10-05T00:59:29.551Z,11.83
2022-10-05T01:02:51.901Z,11.83
2022-10-05T01:06:22.501Z,11.83
2022-10-05T01:09:42.155Z,11.80
2022-10-05T01:12:54.805Z,11.79
2022-10-05T01:16:16.600Z,11.78
2022-10-05T01:19:42.518Z,11.75
2022-10-05T01:23:12.313Z,11.79
2022-10-05T01:26:19.299Z,11.73
2022-10-05T01:29:27.472Z,11.71
2022-10-05T01:32:38.238Z,11.61
2022-10-05T01:35:51.594Z,11.57
2022-10-05T01:39:08.533Z,11.61
2022-10-05T01:42:28.536Z,11.64
2022-10-05T01:45:37.564Z,11.59
2022-10-05T01:48:47.052Z,11.58
2022-10-05T01:52:36.231Z,11.60
2022-10-05T01:56:01.640Z,11.56
2022-10-05T01:59:30.410Z,11.53
2022-10-05T02:02:41.671Z,11.51
2022-10-05T02:05:54.373Z,11.46
2022-10-05T02:09:07.336Z,11.45
2022-10-05T02:12:19.152Z,11.45
2022-10-05T02:15:27.473Z,11.43
2022-10-05T02:18:40.681Z,11.42
2022-10-05T02:21:49.032Z,11.43
2022-10-05T02:24:57.102Z,11.41
2022-10-05T02:28:07.955Z,11.46
2022-10-05T02:31:38.237Z,11.44
2022-10-05T02:34:43.427Z,11.46
2022-10-05T02:38:00.787Z,11.47
2022-10-05T02:41:28.807Z,11.46
2022-10-05T02:44:51.276Z,11.42
2022-10-05T02:48:23.125Z,11.42
2022-10-05T02:51:44.312Z,11.47
2022-10-05T02:55:10.459Z,11.45
2022-10-05T02:58:19.094Z,11.42
2022-10-05T03:01:40.372Z,11.38
2022-10-05T03:05:04.575Z,11.34
2022-10-05T03:08:34.014Z,11.31
2022-10-05T03:11:57.888Z,11.29
2022-10-05T03:15:31.341Z,11.23
2022-10-05T03:18:46.847Z,11.23
2022-10-05T03:22:20.380Z,11.33
2022-10-05T03:25:48.438Z,11.26
2022-10-05T03:29:08.592Z,11.23
2022-10-05T03:32:39.683Z,11.24
2022-10-05T03:36:14.242Z,11.18
2022-10-05T03:39:26.018Z,11.17
2022-10-05T03:42:48.886Z,11.20
2022-10-05T03:46:05.247Z,11.12
2022-10-05T03:49:33.905Z,11.08
2022-10-05T03:52:49.026Z,11.13
2022-10-05T03:56:14.583Z,11.21
2022-10-05T03:59:23.213Z,11.20
2022-10-05T04:02:33.580Z,11.19
2022-10-05T04:05:53.043Z,11.25
2022-10-05T04:09:29.491Z,11.23
2022-10-05T04:12:38.722Z,11.18
2022-10-05T04:15:53.144Z,11.13
2022-10-05T04:19:19.634Z,11.10
2022-10-05T04:22:45.986Z,11.09
2022-10-05T04:25:57.530Z,11.00
2022-10-05T04:29:25.289Z,11.07
2022-10-05T04:32:42.736Z,11.06
2022-10-05T04:36:11.926Z,11.05
2022-10-05T04:39:28.334Z,11.03
2022-10-05T04:42:52.527Z,11.03
2022-10-05T04:46:22.679Z,11.02
2022-10-05T04:49:57.403Z,11.07
2022-10-05T04:53:47.035Z,10.98
2022-10-05T04:56:59.583Z,11.07
2022-10-05T05:00:25.202Z,11.04
2022-10-05T05:03:39.927Z,11.03
2022-10-05T05:07:03.410Z,11.04
2022-10-05T05:10:35.303Z,11.13
2022-10-05T05:14:06.067Z,11.04
2022-10-05T05:17:44.795Z,10.99
2022-10-05T05:21:11.838Z,11.06
2022-10-05T05:24:53.570Z,11.08
2022-10-05T05:28:23.488Z,11.09
2022-10-05T05:31:27.708Z,11.10
2022-10-05T05:34:59.887Z,11.21
2022-10-05T05:38:16.352Z,11.20
2022-10-05T05:41:38.616Z,11.24
2022-10-05T05:44:48.131Z,11.14
2022-10-05T05:47:54.762Z,11.08
2022-10-05T05:51:20.541Z,11.14
2022-10-05T05:54:31.606Z,11.24
2022-10-05T05:57:48.943Z,11.32
2022-10-05T06:00:59.802Z,11.37
2022-10-05T06:04:15.648Z,11.45
2022-10-05T06:07:30.194Z,11.53
2022-10-05T06:10:43.431Z,11.57
2022-10-05T06:13:51.272Z,11.64
2022-10-05T06:17:14.212Z,11.74
2022-10-05T06:20:27.897Z,11.87
2022-10-05T06:23:58.557Z,11.92
2022-10-05T06:27:24.699Z,12.09
2022-10-05T06:30:36.919Z,12.20
2022-10-05T06:33:51.263Z,12.35
2022-10-05T06:37:04.614Z,12.41
2022-10-05T06:40:44.335Z,12.44
2022-10-05T06:43:59.128Z,12.53
2022-10-05T06:47:23.441Z,12.54
2022-10-05T06:50:42.371Z,12.62
2022-10-05T06:54:08.775Z,12.68
2022-10-05T06:57:15.879Z,12.75
2022-10-05T07:00:27.797Z,12.81
2022-10-05T07:04:15.981Z,13.02
2022-10-05T07:07:38.828Z,13.14
2022-10-05T07:11:02.279Z,13.25
2022-10-05T07:14:14.666Z,13.33
2022-10-05T07:17:29.323Z,13.39
2022-10-05T07:20:48.901Z,13.47
2022-10-05T07:24:15.912Z,13.51
2022-10-05T07:27:25.469Z,13.63
2022-10-05T07:30:38.470Z,13.67
2022-10-05T07:33:47.001Z,13.75
2022-10-05T07:37:18.562Z,13.87
2022-10-05T07:40:45.076Z,14.04
2022-10-05T07:44:02.358Z,14.21
2022-10-05T07:47:17.912Z,14.44
2022-10-05T07:51:01.734Z,14.61
2022-10-05T07:54:18.016Z,14.70
2022-10-05T07:57:43.770Z,15.07
2022-10-05T08:01:13.343Z,15.28
2022-10-05T08:04:25.339Z,15.57
2022-10-05T08:07:31.453Z,15.96
2022-10-05T08:10:43.589Z,16.04
2022-10-05T08:14:24.374Z,16.35
2022-10-05T08:17:37.521Z,16.12
2022-10-05T08:20:49.836Z,15.89
2022-10-05T08:24:17.675Z,16.45
2022-10-05T08:27:30.922Z,16.29
2022-10-05T08:30:48.438Z,15.78
2022-10-05T08:34:01.914Z,15.85
2022-10-05T08:37:17.852Z,16.10
2022-10-05T08:40:37.363Z,16.15
2022-10-05T08:43:50.185Z,16.44
2022-10-05T08:47:29.522Z,16.62
2022-10-05T08:51:03.298Z,17.08
2022-10-05T08:54:30.457Z,17.32
2022-10-05T08:58:11.185Z,17.53
2022-10-05T09:01:27.196Z,17.80
2022-10-05T09:04:53.486Z,18.00
2022-10-05T09:08:20.274Z,17.72
2022-10-05T09:11:36.641Z,17.74
2022-10-05T09:15:24.765Z,18.11
2022-10-05T09:19:06.252Z,17.86
2022-10-05T09:22:15.616Z,17.75
2022-10-05T09:25:23.368Z,17.77
2022-10-05T09:29:04.756Z,17.59
2022-10-05T09:32:30.290Z,17.45
2022-10-05T09:36:09.124Z,17.40
2022-10-05T09:39:47.327Z,17.33
2022-10-05T09:43:08.739Z,17.25
2022-10-05T09:46:43.017Z,17.28
2022-10-05T09:50:22.789Z,17.12
2022-10-05T09:53:46.742Z,17.02
2022-10-05T09:57:15.524Z,16.98
2022-10-05T10:00:40.763Z,17.13
2022-10-05T10:04:47.871Z,17.26
2022-10-05T10:08:05.252Z,17.43
2022-10-05T10:11:16.301Z,17.59
2022-10-05T10:14:39.177Z,17.76
2022-10-05T10:18:02.290Z,17.89
2022-10-05T10:21:15.827Z,17.89
2022-10-05T10:24:41.843Z,17.94
2022-10-05T10:28:06.948Z,18.03
2022-10-05T10:31:20.669Z,18.17
2022-10-05T10:34:57.379Z,18.36
2022-10-05T10:38:13.872Z,18.39
2022-10-05T10:41:26.884Z,18.62
2022-10-05T10:44:31.090Z,18.72
2022-10-05T10:47:50.655Z,18.88
2022-10-05T10:51:26.208Z,19.03
2022-10-05T10:54:56.057Z,19.09
2022-10-05T10:58:16.283Z,19.28
2022-10-05T11:02:02.491Z,19.42
2022-10-05T11:05:21.929Z,19.65
2022-10-05T11:08:59.293Z,19.86
2022-10-05T11:12:09.325Z,19.85
2022-10-05T11:15:50.670Z,19.98
2022-10-05T11:19:17.024Z,20.10
2022-10-05T11:22:33.170Z,19.95
2022-10-05T11:25:46.125Z,19.93
2022-10-05T11:28:56.028Z,19.70
2022-10-05T11:32:19.225Z,19.63
2022-10-05T11:35:56.884Z,19.55
2022-10-05T11:39:37.057Z,19.45
2022-10-05T11:43:13.070Z,19.32
2022-10-05T11:46:46.175Z,19.39
2022-10-05T11:50:15.334Z,19.21
2022-10-05T11:53:32.571Z,19.18
2022-10-05T11:56:44.605Z,19.18
2022-10-05T12:00:21.474Z,19.25
2022-10-05T12:03:42.228Z,19.24
2022-10-05T12:07:04.266Z,19.21
2022-10-05T12:10:27.652Z,19.26
2022-10-05T12:13:47.305Z,19.27
2022-10-05T12:17:21.786Z,19.33
2022-10-05T12:20:40.942Z,19.40
2022-10-05T12:24:16.439Z,19.32
2022-10-05T12:27:25.237Z,19.28
2022-10-05T12:30:58.966Z,19.31
2022-10-05T12:34:13.780Z,19.21
2022-10-05T12:37:36.699Z,19.12
2022-10-05T12:40:46.139Z,19.23
2022-10-05T12:44:15.113Z,19.33
2022-10-05T12:47:30.175Z,19.39
2022-10-05T12:50:42.825Z,19.47
2022-10-05T12:54:11.169Z,19.45
2022-10-05T12:57:41.191Z,19.40
2022-10-05T13:01:14.724Z,19.43
2022-10-05T13:04:50.407Z,19.36
2022-10-05T13:08:03.021Z,19.37
2022-10-05T13:11:17.350Z,19.39
2022-10-05T13:14:59.249Z,19.47
2022-10-05T13:18:18.219Z,19.49
2022-10-05T13:21:33.776Z,19.52
2022-10-05T13:24:48.876Z,19.55
2022-10-05T13:28:02.291Z,19.58
2022-10-05T13:31:15.814Z,19.64
2022-10-05T13:34:41.893Z,19.68
2022-10-05T13:37:51.816Z,19.66
2022-10-05T13:41:34.866Z,19.68
2022-10-05T13:44:49.607Z,19.71
2022-10-05T13:48:25.158Z,19.74
2022-10-05T13:51:49.905Z,19.81
2022-10-05T13:55:00.137Z,19.73
2022-10-05T13:58:41.230Z,19.66
2022-10-05T14:02:20.371Z,19.72
2022-10-05T14:05:29.812Z,19.77
2022-10-05T14:08:37.161Z,19.80
2022-10-05T14:11:54.165Z,19.78
2022-10-05T14:14:58.463Z,19.80
2022-10-05T14:18:25.422Z,19.85
2022-10-05T14:21:31.453Z,20.01
2022-10-05T14:24:44.264Z,19.91
2022-10-05T14:28:00.932Z,19.82
2022-10-05T14:31:15.665Z,19.71
2022-10-05T14:34:39.238Z,19.64
2022-10-05T14:38:00.422Z,19.58
2022-10-05T14:41:16.268Z,19.54
2022-10-05T14:44:24.262Z,19.52
2022-10-05T14:47:31.388Z,19.56
2022-10-05T14:50:50.950Z,19.66
2022-10-05T14:54:01.103Z,19.70
2022-10-05T14:57:05.040Z,19.73
2022-10-05T15:00:16.350Z,19.69
2022-10-05T15:03:45.652Z,19.68
2022-10-05T15:07:13.659Z,19.68
2022-10-05T15:10:40.468Z,19.74
2022-10-05T15:13:47.453Z,19.70
2022-10-05T15:17:03.754Z,19.73
2022-10-05T15:20:19.944Z,19.72
2022-10-05T15:23:38.171Z,19.65
2022-10-05T15:26:57.669Z,19.62
2022-10-05T15:30:09.157Z,19.62
2022-10-05T15:33:28.747Z,19.52
2022-10-05T15:36:41.464Z,19.44
2022-10-05T15:40:28.163Z,19.39
2022-10-05T15:44:01.369Z,19.25
2022-10-05T15:47:36.701Z,19.13
2022-10-05T15:50:47.675Z,19.01
2022-10-05T15:54:17.624Z,18.91
2022-10-05T15:57:38.795Z,18.80
2022-10-05T16:00:47.832Z,18.68
2022-10-05T16:04:02.826Z,18.61
2022-10-05T16:07:31.325Z,18.52
2022-10-05T16:10:42.093Z,18.42
2022-10-05T16:14:01.082Z,18.35
2022-10-05T16:17:13.580Z,18.31
2022-10-05T16:20:28.831Z,18.20
2022-10-05T16:24:05.746Z,18.10
2022-10-05T16:27:20.638Z,18.02
2022-10-05T16:30:25.201Z,17.93
2022-10-05T16:33:54.691Z,17.86
2022-10-05T16:37:10.976Z,17.78
2022-10-05T16:40:36.447Z,17.71
2022-10-05T16:43:52.038Z,17.65
2022-10-05T16:47:04.454Z,17.57
2022-10-05T16:50:48.853Z,17.53
2022-10-05T16:54:08.414Z,17.45
2022-10-05T16:57:38.618Z,17.40
2022-10-05T17:00:58.052Z,17.32
2022-10-05T17:04:42.972Z,17.25
2022-10-05T17:08:09.158Z,17.21
2022-10-05T17:11:19.008Z,17.21
2022-10-05T17:14:35.170Z,17.18
2022-10-05T17:17:57.718Z,17.18
2022-10-05T17:21:28.484Z,17.16
2022-10-05T17:24:53.972Z,17.10
2022-10-05T17:28:18.580Z,17.07
2022-10-05T17:31:25.637Z,17.05
2022-10-05T17:34:34.292Z,16.97
2022-10-05T17:38:12.164Z,16.96
2022-10-05T17:41:24.989Z,16.85
2022-10-05T17:44:30.667Z,16.75
2022-10-05T17:48:05.023Z,16.72
2022-10-05T17:51:36.797Z,16.72
2022-10-05T17:55:20.652Z,16.66
2022-10-05T17:58:27.400Z,16.65
2022-10-05T18:01:40.078Z,16.64
2022-10-05T18:05:00.155Z,16.59
2022-10-05T18:08:13.354Z,16.60
2022-10-05T18:11:23.463Z,16.58
2022-10-05T18:14:27.686Z,16.59
2022-10-05T18:17:50.540Z,16.56
2022-10-05T18:21:13.611Z,16.56
2022-10-05T18:24:36.512Z,16.51
2022-10-05T18:28:00.275Z,16.53
2022-10-05T18:31:30.186Z,16.52
2022-10-05T18:35:02.317Z,16.56
2022-10-05T18:38:14.373Z,16.55
2022-10-05T18:41:31.797Z,16.53
2022-10-05T18:44:42.589Z,16.56
2022-10-05T18:48:20.552Z,16.54
2022-10-05T18:51:51.849Z,16.53
2022-10-05T18:55:20.887Z,16.56
2022-10-05T18:58:43.186Z,16.58
2022-10-05T19:02:10.932Z,16.55
2022-10-05T19:05:48.794Z,16.59
2022-10-05T19:08:58.360Z,16.58
2022-10-05T19:12:14.866Z,16.64
2022-10-05T19:15:56.988Z,16.59
2022-10-05T19:19:38.187Z,16.56
2022-10-05T19:22:47.889Z,16.54
2022-10-05T19:25:59.575Z,16.53
2022-10-05T19:29:23.342Z,16.56
2022-10-05T19:32:37.403Z,16.59
2022-10-05T19:36:04.153Z,16.57
2022-10-05T19:39:55.368Z,16.57
2022-10-05T19:43:27.111Z,16.57
2022-10-05T19:47:00.817Z,16.57
2022-10-05T19:50:26.882Z,16.56
2022-10-05T19:53:36.998Z,16.56
2022-10-05T19:56:49.731Z,16.51
2022-10-05T19:59:57.812Z,16.51
2022-10-05T20:03:12.303Z,16.51
2022-10-05T20:06:19.090Z,16.47
2022-10-05T20:09:23.596Z,16.44
2022-10-05T20:12:59.941Z,16.41
2022-10-05T20:16:35.675Z,16.39
2022-10-05T20:19:58.539Z,16.39
2022-10-05T20:23:22.785Z,16.43
2022-10-05T20:26:57.867Z,16.43
2022-10-05T20:30:02.155Z,16.42
2022-10-05T20:33:10.350Z,16.38
2022-10-05T20:36:14.474Z,16.36
2022-10-05T20:39:19.121Z,16.38
2022-10-05T20:42:23.710Z,16.37
2022-10-05T20:45:28.353Z,16.39
2022-10-05T20:48:32.239Z,16.35
2022-10-05T20:51:37.909Z,16.34
2022-10-05T20:54:42.420Z,16.30
2022-10-05T20:57:47.268Z,16.33
2022-10-05T21:01:09.764Z,16.29
2022-10-05T21:04:19.269Z,16.25
2022-10-05T21:07:23.400Z,16.23
2022-10-05T21:10:27.110Z,16.18
2022-10-05T21:13:31.069Z,16.17
2022-10-05T21:16:38.415Z,16.14
2022-10-05T21:19:42.590Z,16.13
2022-10-05T21:22:46.597Z,16.12
2022-10-05T21:25:50.270Z,16.11
2022-10-05T21:28:54.575Z,16.15
2022-10-05T21:31:58.779Z,16.12
2022-10-05T21:35:02.951Z,16.07
2022-10-05T21:38:06.812Z,16.04
2022-10-05T21:41:10.679Z,16.01
2022-10-05T21:44:14.768Z,15.98
2022-10-05T21:47:18.991Z,15.97
2022-10-05T21:50:24.170Z,15.94
2022-10-05T21:53:32.474Z,15.99
2022-10-05T21:56:40.072Z,16.04
2022-10-05T21:59:44.598Z,16.05
2022-10-05T22:02:48.810Z,16.01
2022-10-05T22:05:53.005Z,16.13
2022-10-05T22:08:57.525Z,16.13
2022-10-05T22:12:01.691Z,16.14
2022-10-05T22:15:07.092Z,16.08
2022-10-05T22:18:17.059Z,16.09
2022-10-05T22:21:21.207Z,16.03
2022-10-05T22:24:24.993Z,16.03
2022-10-05T22:27:30.628Z,16.02
2022-10-05T22:30:35.744Z,16.05
2022-10-05T22:33:40.818Z,16.00
2022-10-05T22:36:45.799Z,15.91
2022-10-05T22:39:49.582Z,15.84
2022-10-05T22:42:53.509Z,15.85
2022-10-05T22:45:57.899Z,15.83
2022-10-05T22:49:02.317Z,15.86
2022-10-05T22:52:07.157Z,15.82
2022-10-05T22:55:11.698Z,15.84
2022-10-05T22:58:15.612Z,15.80
2022-10-05T23:01:19.887Z,15.83
2022-10-05T23:04:24.056Z,15.77
2022-10-05T23:07:28.308Z,15.77
2022-10-05T23:10:32.266Z,15.78
2022-10-05T23:13:36.882Z,15.77
2022-10-05T23:16:40.951Z,15.81
2022-10-05T23:19:44.703Z,15.77
2022-10-05T23:22:48.583Z,15.71
2022-10-05T23:25:58.486Z,15.68
2022-10-05T23:29:02.620Z,15.67
2022-10-05T23:32:07.897Z,15.70
2022-10-05T23:35:13.303Z,15.70
2022-10-05T23:38:17.640Z,15.71
2022-10-05T23:41:21.818Z,15.71
2022-10-05T23:44:26.337Z,15.68
2022-10-05T23:47:30.128Z,15.66
2022-10-05T23:50:34.607Z,15.62
2022-10-05T23:53:38.533Z,15.60
2022-10-05T23:56:42.715Z,15.59
2022-10-05T23:59:46.491Z,15.61
